Time;durP1;ratioP1;P1;durP2;ratioP2;P2;SDS_P1;SDS_P2;PMS_P1;PMS_P2;Temp;Humidity;BMP_temperature;BMP_pressure;BME280_temperature;BME280_humidity;BME280_pressure;Samples;Min_cycle;Max_cycle;Signal;HPM_P1;HPM_P2
2024/02/13 00:00:38;;;;;;;;;18.50;15.50;;;;;-144.24;100.00;104853.31;5070353;28;46767;-70
2024/02/13 00:03:09;;;;;;;;;20.00;18.75;;;;;-144.24;100.00;105109.41;5077129;28;45383;-71
2024/02/13 00:05:34;;;;;;;;;17.75;17.75;;;;;-144.24;100.00;105278.13;5069595;28;45973;-70
2024/02/13 00:08:00;;;;;;;;;21.75;19.50;;;;;-144.24;100.00;105394.00;5068153;28;45481;-70
2024/02/13 00:10:26;;;;;;;;;18.25;15.00;;;;;-144.24;100.00;105461.09;5076423;28;45679;-70
2024/02/13 00:12:52;;;;;;;;;21.50;16.00;;;;;-144.24;100.00;105642.03;5061778;28;45291;-71
2024/02/13 00:15:21;;;;;;;;;17.25;15.00;;;;;-144.24;100.00;105680.66;5067732;28;48233;-71
2024/02/13 00:17:47;;;;;;;;;18.75;16.50;;;;;-144.24;100.00;105759.94;5072043;28;45397;-72
2024/02/13 00:20:14;;;;;;;;;17.00;15.00;;;;;-144.24;100.00;105896.16;5076036;28;46240;-72
2024/02/13 00:22:40;;;;;;;;;19.25;16.25;;;;;-144.24;100.00;106052.69;5070384;28;45406;-72
2024/02/13 00:25:08;;;;;;;;;18.25;17.00;;;;;-144.24;100.00;106231.63;5078040;28;45479;-72
2024/02/13 00:27:35;;;;;;;;;15.75;15.25;;;;;-144.24;100.00;106353.63;5062300;28;45248;-72
2024/02/13 00:30:09;;;;;;;;;18.00;17.75;;;;;-144.24;100.00;106481.72;5078368;28;45850;-71
2024/02/13 00:32:39;;;;;;;;;24.50;18.00;;;;;-144.24;100.00;106658.63;5071656;28;45331;-72
2024/02/13 00:35:05;;;;;;;;;21.75;17.75;;;;;-144.24;100.00;106693.19;5068704;28;45441;-72
2024/02/13 00:37:31;;;;;;;;;19.50;17.25;;;;;-144.24;100.00;106536.63;5074680;28;45388;-71
2024/02/13 00:39:57;;;;;;;;;21.50;18.00;;;;;-144.24;100.00;106670.84;5073029;28;45333;-72
2024/02/13 00:42:22;;;;;;;;;22.00;19.00;;;;;-144.24;100.00;106796.91;5073997;28;45313;-72
2024/02/13 00:44:49;;;;;;;;;21.50;19.50;;;;;-144.24;100.00;106973.84;5064209;28;45521;-69
2024/02/13 00:47:14;;;;;;;;;22.00;21.25;;;;;-144.24;100.00;106902.66;5058241;28;45373;-69
2024/02/13 00:49:40;;;;;;;;;27.00;20.75;;;;;-144.24;100.00;107040.94;5067227;28;46598;-70
2024/02/13 00:52:06;;;;;;;;;21.25;18.00;;;;;-144.24;100.00;106990.09;5068801;28;63276;-70
2024/02/13 00:54:32;;;;;;;;;28.75;23.00;;;;;-144.24;100.00;107000.28;5077443;28;45412;-70
2024/02/13 00:56:57;;;;;;;;;23.25;20.00;;;;;-144.24;100.00;106931.13;5091210;27;45261;-72
2024/02/13 00:59:23;;;;;;;;;25.25;22.25;;;;;-144.24;100.00;106882.31;5094974;27;68054;-72
2024/02/13 01:01:48;;;;;;;;;27.00;20.25;;;;;-144.24;100.00;106902.66;5092831;27;45291;-72
2024/02/13 01:04:14;;;;;;;;;24.25;22.75;;;;;-144.24;100.00;106756.25;5097853;27;54088;-71
2024/02/13 01:06:39;;;;;;;;;26.25;23.25;;;;;-144.24;100.00;106683.03;5090951;27;45441;-72
2024/02/13 01:09:05;;;;;;;;;23.75;19.50;;;;;-144.24;100.00;106709.47;5081625;27;45445;-72
2024/02/13 01:11:35;;;;;;;;;27.25;19.75;;;;;-144.24;100.00;106648.47;5087512;27;46905;-72
2024/02/13 01:14:01;;;;;;;;;27.75;21.00;;;;;-144.24;100.00;106550.88;5089619;27;45356;-72
2024/02/13 01:16:26;;;;;;;;;28.75;25.75;;;;;-144.24;100.00;106617.97;5092054;27;45442;-72
2024/02/13 01:18:52;;;;;;;;;22.75;19.25;;;;;-144.24;100.00;106573.22;5094770;27;61515;-72
2024/02/13 01:21:22;;;;;;;;;24.75;21.25;;;;;-144.24;100.00;106481.72;5079917;27;59667;-71
2024/02/13 01:23:47;;;;;;;;;26.00;23.00;;;;;-144.24;100.00;106554.94;5071340;27;45342;-72
2024/02/13 01:26:13;;;;;;;;;27.00;22.75;;;;;-144.24;100.00;106495.97;5098321;27;45348;-71
2024/02/13 01:28:40;;;;;;;;;28.25;23.25;;;;;-144.24;100.00;106408.53;5090749;27;45697;-72
2024/02/13 01:31:05;;;;;;;;;26.25;22.00;;;;;-144.24;100.00;106376.00;5096238;27;45426;-72
2024/02/13 01:33:31;;;;;;;;;30.50;23.25;;;;;-144.24;100.00;106504.09;5094987;27;62562;-72
2024/02/13 01:35:56;;;;;;;;;22.25;20.25;;;;;-144.24;100.00;106449.19;5094471;27;45248;-71
2024/02/13 01:38:22;;;;;;;;;29.50;23.00;;;;;-144.24;100.00;106317.03;5093511;27;45367;-71
2024/02/13 01:40:47;;;;;;;;;14.25;8.00;;;;;-144.24;100.00;106380.06;5071541;27;45480;-71
2024/02/13 01:43:13;;;;;;;;;23.75;21.50;;;;;-144.24;100.00;106345.50;5089453;27;59879;-70
2024/02/13 01:45:39;;;;;;;;;26.25;19.00;;;;;-144.24;100.00;106394.28;5091350;27;45355;-72
2024/02/13 01:48:06;;;;;;;;;29.25;23.25;;;;;-144.24;100.00;106441.06;5087958;27;67842;-71
2024/02/13 01:50:32;;;;;;;;;26.00;22.75;;;;;-144.24;100.00;106428.84;5071277;27;45520;-73
2024/02/13 01:52:58;;;;;;;;;25.75;22.75;;;;;-144.24;100.00;106262.13;5093873;27;45269;-71
2024/02/13 01:55:25;;;;;;;;;20.75;18.50;;;;;-144.24;100.00;106341.44;5082662;27;45658;-71
2024/02/13 01:57:52;;;;;;;;;24.25;22.50;;;;;-144.24;100.00;106367.84;5088247;27;45853;-71
2024/02/13 02:00:18;;;;;;;;;24.75;23.00;;;;;-144.24;100.00;106388.19;5096964;27;45408;-71
2024/02/13 02:02:46;;;;;;;;;27.25;22.00;;;;;-144.24;100.00;106396.31;5086539;27;70310;-71
2024/02/13 02:05:13;;;;;;;;;21.75;21.75;;;;;-144.24;100.00;106453.25;5093488;27;45598;-71
2024/02/13 02:07:42;;;;;;;;;24.50;22.75;;;;;-144.24;100.00;106386.16;5075609;28;47186;-71
2024/02/13 02:10:08;;;;;;;;;24.00;23.00;;;;;-144.24;100.00;106357.69;5091719;27;45348;-72
2024/02/13 02:12:38;;;;;;;;;31.25;28.25;;;;;-144.24;100.00;106353.63;5094607;27;45384;-72
2024/02/13 02:15:04;;;;;;;;;25.75;23.00;;;;;-144.24;100.00;106392.25;5059862;27;45280;-71
2024/02/13 02:17:29;;;;;;;;;25.00;21.25;;;;;-144.24;100.00;106386.16;5079819;27;46585;-70
2024/02/13 02:19:56;;;;;;;;;25.75;21.25;;;;;-144.24;100.00;106398.34;5089988;27;55321;-72
2024/02/13 02:22:22;;;;;;;;;28.25;24.75;;;;;-144.24;100.00;106355.66;5092621;27;45518;-71
2024/02/13 02:24:47;;;;;;;;;26.50;21.75;;;;;-144.24;100.00;106398.34;5091570;27;45605;-72
2024/02/13 02:27:13;;;;;;;;;28.00;24.00;;;;;-144.24;100.00;106408.53;5096009;27;73043;-71
2024/02/13 02:29:38;;;;;;;;;30.00;24.50;;;;;-144.24;100.00;106487.81;5089665;27;54255;-73
2024/02/13 02:32:04;;;;;;;;;26.00;22.75;;;;;-144.24;100.00;106485.78;5091658;27;45478;-71
2024/02/13 02:34:31;;;;;;;;;34.25;27.50;;;;;-144.24;100.00;106443.09;5071433;27;45473;-72
2024/02/13 02:36:56;;;;;;;;;27.00;24.00;;;;;-144.24;100.00;106526.47;5087561;27;45287;-72
2024/02/13 02:39:22;;;;;;;;;23.00;18.75;;;;;-144.24;100.00;106453.25;5082768;27;64573;-71
2024/02/13 02:41:47;;;;;;;;;28.50;24.75;;;;;-144.24;100.00;106473.59;5090984;27;52889;-71
2024/02/13 02:44:13;;;;;;;;;32.00;25.75;;;;;-144.24;100.00;106493.94;5090033;27;58378;-71
2024/02/13 02:46:39;;;;;;;;;25.50;20.25;;;;;-144.24;100.00;106615.94;5083036;27;70395;-71
2024/02/13 02:49:05;;;;;;;;;30.50;22.25;;;;;-144.24;100.00;106542.72;5091581;27;45228;-72
2024/02/13 02:51:31;;;;;;;;;25.25;23.25;;;;;-144.24;100.00;106644.41;5097053;27;45456;-72
2024/02/13 02:53:57;;;;;;;;;26.25;23.50;;;;;-144.24;100.00;106654.56;5085956;27;45539;-71
2024/02/13 02:56:23;;;;;;;;;33.25;30.00;;;;;-144.24;100.00;106512.22;5086126;27;46936;-72
2024/02/13 02:58:49;;;;;;;;;30.50;27.00;;;;;-144.24;100.00;106430.91;5070561;27;45416;-72
2024/02/13 03:01:15;;;;;;;;;25.75;22.50;;;;;-144.24;100.00;106343.47;5077095;27;45498;-71
2024/02/13 03:03:40;;;;;;;;;23.50;22.75;;;;;-144.24;100.00;106363.78;5087402;27;45563;-71
2024/02/13 03:06:07;;;;;;;;;22.25;21.75;;;;;-144.24;100.00;106237.72;5096006;27;45755;-72
2024/02/13 03:08:32;;;;;;;;;25.50;23.75;;;;;-144.24;100.00;106134.03;5089798;27;45457;-72
2024/02/13 03:10:58;;;;;;;;;29.75;23.75;;;;;-144.24;100.00;106103.53;5096374;27;45337;-72
2024/02/13 03:13:24;;;;;;;;;24.50;22.25;;;;;-144.24;100.00;106071.00;5095625;27;45351;-68
2024/02/13 03:15:52;;;;;;;;;34.50;25.75;;;;;-144.24;100.00;106087.25;5089805;27;46465;-70
2024/02/13 03:18:24;;;;;;;;;26.75;25.75;;;;;-144.24;100.00;106123.88;5095251;27;45367;-72
2024/02/13 03:20:49;;;;;;;;;25.00;21.50;;;;;-144.24;100.00;106150.28;5094762;27;45162;-72
2024/02/13 03:23:16;;;;;;;;;27.25;19.00;;;;;-144.24;100.00;106203.16;5093820;27;66321;-72
2024/02/13 03:25:41;;;;;;;;;23.25;22.75;;;;;-144.24;100.00;106251.97;5096117;27;46599;-70
2024/02/13 03:28:07;;;;;;;;;25.25;21.00;;;;;-144.24;100.00;106400.38;5094652;27;45282;-71
2024/02/13 03:30:33;;;;;;;;;28.25;24.00;;;;;-144.24;100.00;106286.53;5068686;27;45725;-69
2024/02/13 03:32:59;;;;;;;;;26.25;18.75;;;;;-144.24;100.00;106475.63;5092993;27;45560;-70
2024/02/13 03:35:24;;;;;;;;;19.00;18.00;;;;;-144.24;100.00;106579.34;5078169;27;46062;-70
2024/02/13 03:37:50;;;;;;;;;25.75;23.25;;;;;-144.24;100.00;106498.00;5088045;27;69794;-70
2024/02/13 03:40:16;;;;;;;;;25.00;21.25;;;;;-144.24;100.00;106650.50;5091241;27;65671;-70
2024/02/13 03:42:45;;;;;;;;;26.25;22.00;;;;;-144.24;100.00;106542.72;5094630;27;45457;-70
2024/02/13 03:45:10;;;;;;;;;25.75;21.50;;;;;-144.24;100.00;106642.38;5099722;27;45664;-71
2024/02/13 03:47:36;;;;;;;;;23.50;21.25;;;;;-144.24;100.00;106656.59;5099387;27;45415;-73
2024/02/13 03:50:02;;;;;;;;;27.50;22.00;;;;;-144.24;100.00;106666.78;5075923;27;45587;-72
2024/02/13 03:52:28;;;;;;;;;25.00;20.75;;;;;-144.24;100.00;106784.72;5094471;27;45349;-71
2024/02/13 03:54:53;;;;;;;;;23.25;20.25;;;;;-144.24;100.00;106752.19;5096972;27;48427;-69
2024/02/13 03:57:18;;;;;;;;;26.25;22.00;;;;;-144.24;100.00;106782.69;5089253;27;68682;-70
2024/02/13 03:59:44;;;;;;;;;25.75;20.25;;;;;-144.24;100.00;106784.72;5093061;27;56980;-72
2024/02/13 04:02:09;;;;;;;;;22.00;20.75;;;;;-144.24;100.00;106658.63;5093342;27;64510;-72
2024/02/13 04:04:35;;;;;;;;;24.50;20.00;;;;;-144.24;100.00;106648.47;5088191;27;71933;-70
2024/02/13 04:07:02;;;;;;;;;22.50;19.25;;;;;-144.24;100.00;106670.84;5089290;27;45407;-69
2024/02/13 04:09:27;;;;;;;;;21.50;19.50;;;;;-144.24;100.00;106656.59;5096763;27;45354;-70
2024/02/13 04:11:52;;;;;;;;;24.50;19.75;;;;;-144.24;100.00;106518.31;5077833;27;67823;-70
2024/02/13 04:14:18;;;;;;;;;29.00;22.00;;;;;-144.24;100.00;106502.06;5098665;27;66720;-72
2024/02/13 04:16:43;;;;;;;;;26.50;20.25;;;;;-144.24;100.00;106469.53;5086710;27;45478;-72
2024/02/13 04:19:11;;;;;;;;;27.50;20.25;;;;;-144.24;100.00;106520.34;5094746;27;45149;-69
2024/02/13 04:21:37;;;;;;;;;28.75;24.00;;;;;-144.24;100.00;106479.69;5093846;27;46143;-69
2024/02/13 04:24:04;;;;;;;;;21.75;21.00;;;;;-144.24;100.00;106463.44;5069318;28;47659;-72
2024/02/13 04:26:29;;;;;;;;;20.25;20.25;;;;;-144.24;100.00;106315.00;5093137;27;45312;-70
2024/02/13 04:28:55;;;;;;;;;24.25;19.25;;;;;-144.24;100.00;106077.09;5088449;27;67009;-71
2024/02/13 04:31:20;;;;;;;;;24.00;19.50;;;;;-144.24;100.00;105989.66;5094830;27;63498;-70
2024/02/13 04:33:45;;;;;;;;;22.75;18.50;;;;;-144.24;100.00;105822.97;5087905;27;60622;-71
2024/02/13 04:36:11;;;;;;;;;14.75;13.00;;;;;-144.24;100.00;105812.78;5084336;27;68085;-70
2024/02/13 04:38:36;;;;;;;;;22.50;17.00;;;;;-144.24;100.00;105808.72;5081126;27;45329;-71
2024/02/13 04:41:03;;;;;;;;;22.75;19.00;;;;;-144.24;100.00;105764.00;5093210;27;45304;-70
2024/02/13 04:43:28;;;;;;;;;23.25;20.25;;;;;-144.24;100.00;105672.50;5079101;27;46262;-70
2024/02/13 04:45:54;;;;;;;;;20.00;16.75;;;;;-144.24;100.00;105635.91;5077225;27;45284;-71
2024/02/13 04:48:19;;;;;;;;;19.25;15.25;;;;;-144.24;100.00;105359.44;5088603;27;45952;-72
2024/02/13 04:50:45;;;;;;;;;21.25;17.00;;;;;-144.24;100.00;105143.97;5085844;27;45420;-70
2024/02/13 04:53:11;;;;;;;;;25.50;20.25;;;;;-144.24;100.00;104908.19;5089752;27;45658;-72
2024/02/13 04:55:37;;;;;;;;;19.50;17.25;;;;;-144.24;100.00;104735.41;5086117;27;45265;-71
2024/02/13 04:58:04;;;;;;;;;22.50;20.00;;;;;-144.24;100.00;104517.94;5093114;27;45365;-70
2024/02/13 05:00:35;;;;;;;;;20.75;18.00;;;;;-144.24;100.00;104526.06;5093489;27;45583;-71
2024/02/13 05:03:06;;;;;;;;;20.50;17.25;;;;;-144.24;100.00;104172.44;5072178;27;46328;-71
2024/02/13 05:08:17;;;;;;;;;18.25;16.25;;;;;-144.24;100.00;103863.56;5094847;27;45414;-71
2024/02/13 05:10:42;;;;;;;;;19.00;19.00;;;;;-144.24;100.00;103981.41;5095738;27;45547;-71
2024/02/13 05:13:08;;;;;;;;;17.25;15.25;;;;;-144.24;100.00;103981.41;5097611;27;45655;-70
2024/02/13 05:15:35;;;;;;;;;25.75;21.75;;;;;-144.24;100.00;103961.09;5086904;27;45285;-69
2024/02/13 05:18:00;;;;;;;;;24.50;18.25;;;;;-144.24;100.00;104024.09;5073864;27;45471;-72
2024/02/13 05:20:25;;;;;;;;;19.75;16.50;;;;;-144.24;100.00;104044.41;5088525;27;45511;-69
2024/02/13 05:22:51;;;;;;;;;19.50;17.00;;;;;-144.24;100.00;104058.63;5090618;27;51186;-72
2024/02/13 05:25:16;;;;;;;;;21.50;18.75;;;;;-144.24;100.00;104038.31;5069676;27;45479;-71
2024/02/13 05:27:44;;;;;;;;;17.50;17.50;;;;;-144.24;100.00;104174.47;5093456;27;45286;-72
2024/02/13 05:30:10;;;;;;;;;21.00;19.00;;;;;-144.24;100.00;104343.16;5086728;27;45411;-72
2024/02/13 05:32:35;;;;;;;;;22.25;18.25;;;;;-144.24;100.00;104316.72;5095844;27;45538;-71
2024/02/13 05:35:00;;;;;;;;;14.50;14.50;;;;;-144.24;100.00;104471.19;5085394;27;58604;-72
2024/02/13 05:37:26;;;;;;;;;16.00;13.00;;;;;-144.24;100.00;104448.84;5087877;27;45232;-71
2024/02/13 05:39:51;;;;;;;;;10.25;9.75;;;;;-144.24;100.00;104278.13;5090131;27;45347;-72
2024/02/13 05:42:18;;;;;;;;;10.25;7.00;;;;;-144.24;100.00;104410.22;5083855;27;45660;-72
2024/02/13 05:44:44;;;;;;;;;12.75;11.00;;;;;-144.24;100.00;104393.97;5079024;27;45444;-71
2024/02/13 05:47:10;;;;;;;;;11.00;10.00;;;;;-144.24;100.00;104215.13;5083389;27;45447;-69
2024/02/13 05:49:36;;;;;;;;;12.00;10.00;;;;;-144.24;100.00;104156.19;5069887;28;45550;-72
2024/02/13 05:52:01;;;;;;;;;7.75;7.75;;;;;-144.24;100.00;104101.31;5086749;27;46256;-69
2024/02/13 05:54:26;;;;;;;;;12.00;10.00;;;;;-144.24;100.00;104174.47;5091288;27;45430;-72
2024/02/13 05:56:52;;;;;;;;;11.00;10.50;;;;;-144.24;100.00;104105.38;5086969;27;55935;-69
2024/02/13 05:59:18;;;;;;;;;8.25;7.25;;;;;-144.24;100.00;104144.00;5075865;27;45487;-69
2024/02/13 06:01:43;;;;;;;;;11.00;11.00;;;;;-144.24;100.00;104068.78;5088911;27;46333;-70
2024/02/13 06:04:08;;;;;;;;;12.75;11.00;;;;;-144.24;100.00;104129.75;5083577;27;45486;-69
2024/02/13 06:06:36;;;;;;;;;11.50;9.75;;;;;-144.24;100.00;104135.84;5088901;27;45514;-69
2024/02/13 06:09:02;;;;;;;;;11.75;8.50;;;;;-144.24;100.00;103979.38;5090616;27;45688;-73
2024/02/13 06:11:28;;;;;;;;;14.00;11.25;;;;;-144.24;100.00;104005.78;5080488;27;65074;-71
2024/02/13 06:13:53;;;;;;;;;12.00;8.00;;;;;-144.24;100.00;104060.66;5087638;27;45358;-72
2024/02/13 06:16:18;;;;;;;;;12.50;9.00;;;;;-144.24;100.00;104296.41;5084918;27;45590;-72
2024/02/13 06:18:47;;;;;;;;;10.25;8.00;;;;;-144.24;100.00;104204.97;5090395;27;45504;-72
2024/02/13 06:21:13;;;;;;;;;13.75;10.50;;;;;-144.24;100.00;104123.66;5085717;27;46510;-72
2024/02/13 06:23:40;;;;;;;;;14.75;10.50;;;;;-144.24;100.00;104278.13;5094587;27;45309;-71
2024/02/13 06:26:06;;;;;;;;;11.00;8.50;;;;;-144.24;100.00;104359.41;5089319;27;45438;-72
2024/02/13 06:28:31;;;;;;;;;11.25;10.25;;;;;-144.24;100.00;104235.44;5096388;27;45235;-69
2024/02/13 06:30:56;;;;;;;;;10.75;9.50;;;;;-144.24;100.00;104253.72;5082495;27;74015;-69
2024/02/13 06:33:22;;;;;;;;;16.50;11.00;;;;;-144.24;100.00;104373.63;5089493;27;45486;-71
2024/02/13 06:35:47;;;;;;;;;10.00;10.00;;;;;-144.24;100.00;104434.59;5089937;27;64316;-72
2024/02/13 06:38:13;;;;;;;;;8.75;8.75;;;;;-144.24;100.00;104519.97;5078509;27;45204;-71
2024/02/13 06:40:38;;;;;;;;;10.25;10.25;;;;;-144.24;100.00;104528.09;5042580;27;57148;-69
2024/02/13 06:43:04;;;;;;;;;14.00;10.25;;;;;-144.24;100.00;104554.53;5078266;27;45513;-71
2024/02/13 06:45:30;;;;;;;;;13.25;10.00;;;;;-144.24;100.00;104580.94;5080247;27;45620;-72
2024/02/13 06:47:56;;;;;;;;;9.75;8.00;;;;;-144.24;100.00;104704.91;5070198;27;45496;-72
2024/02/13 06:50:22;;;;;;;;;11.00;7.25;;;;;-144.24;100.00;104769.97;5081296;27;46019;-72
2024/02/13 06:52:52;;;;;;;;;11.00;9.75;;;;;-144.24;100.00;104898.00;5089792;27;45691;-71
2024/02/13 06:55:20;;;;;;;;;14.25;11.00;;;;;-144.24;100.00;104948.84;5087653;27;45291;-71
2024/02/13 06:57:46;;;;;;;;;10.25;10.25;;;;;-144.24;100.00;105160.22;5085430;27;46113;-71
2024/02/13 07:00:13;;;;;;;;;9.00;6.75;;;;;-144.24;100.00;105335.06;5094614;27;46515;-72
2024/02/13 07:02:41;;;;;;;;;15.25;11.00;;;;;-144.24;100.00;105444.81;5061952;27;46137;-71
2024/02/13 07:05:08;;;;;;;;;17.50;15.00;;;;;-144.24;100.00;105424.50;5066077;27;45327;-72
2024/02/13 07:07:34;;;;;;;;;11.75;11.00;;;;;-144.24;100.00;105381.81;5086431;27;45564;-71
2024/02/13 07:10:00;;;;;;;;;12.25;9.25;;;;;-144.24;100.00;105255.78;5093308;27;45765;-71
2024/02/13 07:12:25;;;;;;;;;6.25;6.00;;;;;-144.24;100.00;105223.25;5073696;27;45534;-72
2024/02/13 07:14:54;;;;;;;;;5.00;5.00;;;;;-144.24;100.00;105178.53;5092503;27;54127;-72
2024/02/13 07:17:19;;;;;;;;;5.50;5.50;;;;;-144.24;100.00;105113.47;5090929;27;45423;-71
2024/02/13 07:19:45;;;;;;;;;6.50;5.50;;;;;-144.24;100.00;104952.91;5070274;27;46459;-71
2024/02/13 07:22:10;;;;;;;;;10.50;7.00;;;;;-144.24;100.00;104989.47;5069090;27;45521;-71
2024/02/13 07:24:39;;;;;;;;;8.25;6.75;;;;;-144.24;100.00;104932.56;5082274;27;57803;-71
2024/02/13 07:27:05;;;;;;;;;8.00;5.00;;;;;-144.24;100.00;104812.66;5090137;27;46414;-71
2024/02/13 07:29:31;;;;;;;;;5.75;5.75;;;;;-144.24;100.00;104692.72;5090783;27;46551;-72
2024/02/13 07:31:58;;;;;;;;;10.50;5.75;;;;;-144.24;100.00;104513.88;5088217;27;46882;-71
2024/02/13 07:34:23;;;;;;;;;10.75;7.00;;;;;-144.24;100.00;104593.13;5072431;27;45761;-73
2024/02/13 07:36:48;;;;;;;;;6.75;3.00;;;;;-144.24;100.00;104404.13;5092585;27;45532;-73
2024/02/13 07:39:14;;;;;;;;;5.75;5.00;;;;;-144.24;100.00;104389.91;5093194;27;47608;-71
2024/02/13 07:41:40;;;;;;;;;6.00;6.00;;;;;-144.24;100.00;104211.06;5089835;27;45446;-71
2024/02/13 07:44:06;;;;;;;;;7.00;7.00;;;;;-144.24;100.00;104156.19;5094909;27;45508;-71
2024/02/13 07:46:32;;;;;;;;;6.50;5.75;;;;;-144.24;100.00;104300.47;5082811;27;45340;-72
2024/02/13 07:48:57;;;;;;;;;15.00;6.00;;;;;-144.24;100.00;104227.31;5089153;27;46080;-72
2024/02/13 07:51:23;;;;;;;;;10.75;7.00;;;;;-144.24;100.00;104223.25;5096984;27;45379;-73
2024/02/13 07:53:51;;;;;;;;;8.75;7.00;;;;;-144.24;100.00;104229.34;5088756;27;45585;-72
2024/02/13 07:56:19;;;;;;;;;11.25;7.25;;;;;-144.24;100.00;104180.56;5089568;27;45467;-72
2024/02/13 07:58:44;;;;;;;;;9.00;7.75;;;;;-144.24;100.00;104261.84;5064950;27;46516;-74
2024/02/13 08:01:10;;;;;;;;;11.00;8.00;;;;;-144.24;100.00;104190.72;5070435;27;45508;-72
2024/02/13 08:03:37;;;;;;;;;12.75;10.25;;;;;-144.24;100.00;104162.28;5084595;27;45361;-72
2024/02/13 08:06:02;;;;;;;;;8.00;6.50;;;;;-144.24;100.00;104123.66;5073295;28;45423;-72
2024/02/13 08:08:28;;;;;;;;;6.25;5.50;;;;;-144.24;100.00;104034.25;5074066;27;68391;-72
2024/02/13 08:10:54;;;;;;;;;7.75;5.75;;;;;-144.24;100.00;104015.97;5070354;28;45437;-73
2024/02/13 08:13:20;;;;;;;;;7.00;7.00;;;;;-144.24;100.00;103936.72;5069697;27;46493;-72
2024/02/13 08:15:47;;;;;;;;;9.50;7.00;;;;;-144.24;100.00;103918.41;5070649;28;45581;-72
2024/02/13 08:18:14;;;;;;;;;12.00;6.75;;;;;-144.24;100.00;103831.03;5067494;27;46585;-72
2024/02/13 08:20:39;;;;;;;;;9.00;8.00;;;;;-144.24;100.00;103650.19;5070680;28;45335;-72
2024/02/13 08:23:05;;;;;;;;;8.75;7.00;;;;;-144.24;100.00;103416.50;5066450;28;45533;-72
2024/02/13 08:25:30;;;;;;;;;8.00;8.00;;;;;-144.24;100.00;103225.53;5072438;28;45390;-72
2024/02/13 08:27:57;;;;;;;;;7.50;7.00;;;;;-144.24;100.00;103032.50;5070400;28;61550;-72
2024/02/13 08:30:23;;;;;;;;;8.75;7.50;;;;;-144.24;100.00;102729.81;5070258;27;45551;-72
2024/02/13 08:32:49;;;;;;;;;9.50;7.75;;;;;-144.24;100.00;102599.78;5073551;28;45557;-72
2024/02/13 08:35:14;;;;;;;;;9.50;7.00;;;;;-144.24;100.00;102394.63;5067739;27;45267;-72
2024/02/13 08:37:40;;;;;;;;;8.75;7.50;;;;;-144.24;100.00;102319.44;5049709;28;47547;-72
2024/02/13 08:40:06;;;;;;;;;7.75;7.00;;;;;-144.24;100.00;102248.34;5061039;28;45546;-74
2024/02/13 08:42:34;;;;;;;;;9.75;6.75;;;;;-144.24;100.00;101996.47;5070994;28;45529;-74
2024/02/13 08:45:02;;;;;;;;;11.75;11.50;;;;;-144.24;100.00;101864.47;5065219;28;45295;-72
2024/02/13 08:47:28;;;;;;;;;10.75;9.25;;;;;-144.24;100.00;101931.50;5065901;28;46343;-72
2024/02/13 08:49:53;;;;;;;;;12.75;9.00;;;;;-144.24;100.00;101779.16;5067335;27;52848;-73
2024/02/13 08:52:19;;;;;;;;;14.00;8.00;;;;;-144.24;100.00;101720.25;5065369;28;45257;-72
2024/02/13 08:54:46;;;;;;;;;16.00;8.75;;;;;-144.24;100.00;101708.06;5057158;28;45781;-73
2024/02/13 08:57:14;;;;;;;;;12.00;9.50;;;;;-144.24;100.00;101641.03;5079976;27;46781;-71
2024/02/13 08:59:42;;;;;;;;;9.00;8.00;;;;;-144.24;100.00;101425.78;5090658;27;45398;-72
2024/02/13 09:02:10;;;;;;;;;9.00;8.75;;;;;-144.24;100.00;101303.91;5093700;27;45231;-70
2024/02/13 09:04:36;;;;;;;;;14.00;10.75;;;;;-144.24;100.00;101342.50;5091974;27;45503;-72
2024/02/13 09:07:02;;;;;;;;;15.25;8.75;;;;;-144.24;100.00;101326.25;5087448;27;47647;-69
2024/02/13 09:09:27;;;;;;;;;15.25;10.25;;;;;-144.24;100.00;101307.97;5095594;27;45475;-74
2024/02/13 09:11:52;;;;;;;;;12.00;9.00;;;;;-144.24;100.00;101393.28;5098421;27;45314;-70
2024/02/13 09:14:18;;;;;;;;;15.00;10.00;;;;;-144.24;100.00;101389.22;5085445;27;46113;-70
2024/02/13 09:16:44;;;;;;;;;12.50;11.00;;;;;-144.24;100.00;101458.25;5088476;27;46426;-72
2024/02/13 09:19:09;;;;;;;;;11.00;10.50;;;;;-144.24;100.00;101563.88;5092305;27;45445;-73
2024/02/13 09:21:34;;;;;;;;;12.67;10.00;;;;;-144.24;100.00;101604.50;5088029;27;48182;-70
2024/02/13 09:24:00;;;;;;;;;8.67;8.67;;;;;-144.24;100.00;101754.78;5085365;27;45267;-72
2024/02/13 09:26:25;;;;;;;;;9.50;8.75;;;;;-144.24;100.00;101811.66;5090185;27;45485;-70
2024/02/13 09:28:50;;;;;;;;;15.00;9.67;;;;;-144.24;100.00;102063.50;5095812;27;45394;-69
2024/02/13 09:31:16;;;;;;;;;11.67;11.67;;;;;-144.24;100.00;102303.19;5092070;27;47439;-71
2024/02/13 09:33:41;;;;;;;;;13.25;10.00;;;;;-144.24;100.00;102534.78;5094254;27;46701;-71
2024/02/13 09:36:08;;;;;;;;;10.00;10.00;;;;;-144.24;100.00;102845.59;5078601;27;46618;-72
2024/02/13 09:38:35;;;;;;;;;11.00;10.00;;;;;-144.24;100.00;103174.72;5087904;27;45369;-72
2024/02/13 09:41:02;;;;;;;;;16.25;11.25;;;;;-144.24;100.00;103438.88;5091573;27;45478;-71
2024/02/13 09:43:27;;;;;;;;;9.67;9.67;;;;;-144.24;100.00;103723.34;5078692;27;45366;-70
2024/02/13 09:45:55;;;;;;;;;10.50;8.00;;;;;-144.24;100.00;103875.75;5081765;27;45694;-72
2024/02/13 09:48:21;;;;;;;;;13.67;10.00;;;;;-144.24;100.00;104107.41;5086216;27;45294;-74
2024/02/13 09:50:48;;;;;;;;;7.00;7.00;;;;;-144.24;100.00;104582.97;5084421;27;45300;-72
2024/02/13 09:53:18;;;;;;;;;14.00;9.00;;;;;-144.24;100.00;104932.56;5089349;27;45375;-71
2024/02/13 09:55:45;;;;;;;;;11.00;9.00;;;;;-144.24;100.00;105611.53;5086859;27;46033;-72
2024/02/13 09:58:11;;;;;;;;;12.33;9.33;;;;;-144.24;100.00;106351.59;5088853;27;45374;-72
2024/02/13 10:00:36;;;;;;;;;32.75;26.25;;;;;-144.24;100.00;106981.97;5077168;27;45471;-72
2024/02/13 10:03:02;;;;;;;;;9.00;9.00;;;;;-144.24;100.00;107360.25;5075493;27;58289;-73
2024/02/13 10:05:27;;;;;;;;;9.00;7.67;;;;;-144.24;100.00;107931.81;5086638;27;46710;-73
2024/02/13 10:07:53;;;;;;;;;8.33;8.33;;;;;-144.24;100.00;108446.47;5089370;27;64571;-72
2024/02/13 10:10:18;;;;;;;;;10.67;10.00;;;;;-144.24;100.00;108761.81;5077870;27;45385;-73
2024/02/13 10:12:55;;;;;;;;;10.67;9.33;;;;;-144.24;100.00;109498.38;5077800;27;45292;-72
2024/02/13 10:15:21;;;;;;;;;10.33;8.33;;;;;-144.24;100.00;110104.81;5076711;27;45472;-73
2024/02/13 10:17:46;;;;;;;;;8.00;8.00;;;;;-144.24;100.00;110446.75;5085728;27;45477;-72
2024/02/13 10:20:13;;;;;;;;;11.00;9.00;;;;;-144.24;100.00;110782.59;5075754;27;45313;-73
2024/02/13 10:22:45;;;;;;;;;9.33;9.33;;;;;-144.24;100.00;111130.69;5072248;27;45561;-72
2024/02/13 10:25:11;;;;;;;;;11.00;8.00;;;;;-144.24;100.00;111672.25;5078017;27;46362;-73
2024/02/13 10:27:36;;;;;;;;;10.00;8.00;;;;;-144.24;100.00;112136.47;5092060;27;45407;-73
2024/02/13 10:30:03;;;;;;;;;8.67;8.67;;;;;-144.24;100.00;112397.13;5090112;27;47502;-74
2024/02/13 10:32:33;;;;;;;;;7.33;7.33;;;;;-144.24;100.00;112737.22;5094860;27;45541;-72
2024/02/13 10:35:04;;;;;;;;;10.00;8.33;;;;;-144.24;100.00;113075.28;5091477;27;46989;-72
2024/02/13 10:37:30;;;;;;;;;10.33;5.67;;;;;-144.24;100.00;113429.69;5092095;27;46472;-73
2024/02/13 10:39:58;;;;;;;;;3.00;2.00;;;;;-144.24;100.00;113833.00;5077961;27;45311;-72
2024/02/13 10:42:26;;;;;;;;;8.00;4.00;;;;;-144.24;100.00;114244.50;5081744;27;45395;-72
2024/02/13 10:44:55;;;;;;;;;5.00;5.00;;;;;-144.24;100.00;114478.81;5067190;27;45980;-72
2024/02/13 10:47:24;;;;;;;;;10.00;8.33;;;;;-144.24;100.00;114786.47;5083177;27;45526;-72